Main page
METAR-TAF:

METAR-TAF

Airports :

Václav Havel Airport Prague

Prague, Czech Republic

latitude: 50-06N, longitude: 014-15E, elevation: 365 m

Current weather observation

The report was made 12 minutes ago, at 03:30 UTC
Wind 6 kt from the West/Northwest
Temperature 9°C
Humidity 87%
Pressure 1031 hPa
Visibility 10 km or more
Few clouds at a height of 2700 ft

METAR: LKPR 260330Z 29006KT 9999 FEW027 09/07 Q1031 NOSIG

Time: 05:42 (03:42 UTC)

Forecast

The report was made 4 hours and 42 minutes ago, at 23:00 UTC
Forecast valid from 26 at 00 UTC to 27 at 06 UTC
Wind 8 kt from the Northwest
Visibility 10 km or more
Broken clouds at a height of 2500 ft
Temporary
from 26 at 08 UTC to 26 at 18 UTC
Wind 12 kt from the North with gusts up to 22 kt
Visibility 10 km or more
Broken clouds at a height of 3000 ft
light rain showers
Becoming
from 26 at 18 UTC to 26 at 20 UTC
Scattered clouds at a height of 3500 ft

TAF: LKPR 252300Z 2600/2706 32008KT 9999 BKN025 TEMPO 2608/2618 01012G22KT 9999 -SHRA BKN030 BECMG 2618/2620 SCT035

Weather observations and forecasts of more than 4000 airports (METAR and TAF reports).

The available stations are represented by yellow and red dots on the map.

Hover mouse over dot to see the name of the station.

Then click to see weather observations and forecasts.

To change the map : click on the green buttons with a black cross to zoom in, on the green button with a dash to zoom out, or on the green arrows for adjacent maps.


METAR-TAF: